South Harpswell, ME (04079)

4:11 AM EST on January 27, 2015 (GMT -0500)
Curtis Cove | Change Station
CLOSE
Current Station
Personal Weather Station
Location: Harpswell, ME
Elevation: 49 ft
Nearby Weather Stations

Elev 49 ft 43.77 °N, 70.02 °W | Updated 3 seconds ago

Snow
Snow
11.7 °F
Feels Like 5 °F
N
4.0
Wind Variable Wind from NNE
Gusts 20.0 mph

Today
High -- | Low -- °F
--% Chance of Precip.
Yesterday
High -- | Low -- °F
Precip. -- in
7:02 AM 4:43 PM
First Quarter, 52% visible
Pressure 29.85 in
Visibility 0.5 miles
Clouds
Windchill 5 °F
Dew Point 9 °F
Humidity 89%
Rainfall 0.00 in
Snow Depth Not available.
UV Not available.
Pollen .10 out of 12
Air Quality Not available.
Flu Activity Not available.
METAR KPWM 270851Z AUTO 01018G29KT 1/2SM SN VV009 M11/M14 A2984 RMK AO2 PK WND 02031/0839 PRESFR SLP107 P0003 60003 T11111139 56024

More Conditions Fewer Conditions

Pressure 29.85 in
Visibility 0.5 miles
Clouds
Windchill 5 °F
Dew Point 9 °F
Humidity 89%
Rainfall 0.00 in
Snow Depth Not available.
UV Not available.
Pollen .10 out of 12
Air Quality Not available.
Flu Activity Not available.
METAR KPWM 270851Z AUTO 01018G29KT 1/2SM SN VV009 M11/M14 A2984 RMK AO2 PK WND 02031/0839 PRESFR SLP107 P0003 60003 T11111139 56024

More Conditions Fewer Conditions

10-Day Weather Forecast

Almanac

Astronomy

Jan. 27, 2015 Rise Set
Actual Time
Civil Twilight
Nautical Twilight
Astronomical Twilight
Moon
Length of Visible Light
Length of Day
Tomorrow will be .
, % of the Moon is Illuminated

Today's Extremes

State Highs State Lows

Community

WunderPhotos

Upload Photos

1,790,555 photos uploaded!

WunderBlogs® & News

Nearby

Air Quality

  Air Quality AQ Index Pollutant
Not available.

Snow Depth

Station Depth Elevation

Earthquake Activity

City Distance Mag. Time & Date
Minimum magnitude displayed is 2.5.

Coastal Water Temperatures

Place Temperature

Nearby Weather Stations